createdAt,value
2017-04-04T00:01:46.597Z,0
2017-04-04T00:02:27.097Z,0
2017-04-04T00:03:07.626Z,0
2017-04-04T00:03:48.122Z,0
2017-04-04T00:04:28.617Z,0
2017-04-04T00:05:09.208Z,0
2017-04-04T00:05:49.673Z,0
2017-04-04T00:06:30.200Z,0
2017-04-04T00:07:10.883Z,0
2017-04-04T00:07:53.085Z,0
2017-04-04T00:08:35.236Z,0
2017-04-04T00:11:07.062Z,0
2017-04-04T00:11:50.339Z,0
2017-04-04T00:12:35.001Z,0
2017-04-04T00:13:20.207Z,0
2017-04-04T00:14:04.105Z,0
2017-04-04T00:14:48.512Z,0
2017-04-04T00:17:31.056Z,0
2017-04-04T00:18:16.147Z,0
2017-04-04T00:19:00.891Z,0
2017-04-04T00:19:48.518Z,0
2017-04-04T00:20:33.835Z,0
2017-04-04T00:21:33.834Z,0
2017-04-04T00:24:15.083Z,0
2017-04-04T00:26:22.105Z,0
2017-04-04T00:27:16.823Z,0
2017-04-04T00:28:08.935Z,0
2017-04-04T00:30:25.493Z,0
2017-04-04T00:31:19.608Z,0
2017-04-04T00:32:01.219Z,0
2017-04-04T00:32:45.829Z,0
2017-04-04T00:33:33.125Z,0
2017-04-04T00:34:45.226Z,0
2017-04-04T01:25:35.558Z,0
2017-04-04T02:39:04.504Z,0
2017-04-04T02:39:50.015Z,0
2017-04-04T03:02:25.121Z,0
2017-04-04T03:03:11.882Z,0
2017-04-04T03:04:26.579Z,0
2017-04-04T03:05:07.528Z,0
2017-04-04T03:05:54.224Z,0
2017-04-04T03:06:53.433Z,0
2017-04-04T03:07:39.784Z,0
2017-04-04T03:08:39.722Z,0
2017-04-04T03:11:01.508Z,0
2017-04-04T03:11:44.500Z,0
2017-04-04T03:12:25.020Z,0
2017-04-04T03:13:05.529Z,0
2017-04-04T03:13:46.039Z,0
2017-04-04T03:14:27.030Z,0
2017-04-04T03:15:17.533Z,0
2017-04-04T03:16:01.994Z,0
2017-04-04T03:16:46.599Z,0
2017-04-04T03:17:53.005Z,0
2017-04-04T03:18:34.005Z,0
2017-04-04T03:19:17.999Z,0
2017-04-04T03:20:00.430Z,0
2017-04-04T03:20:41.139Z,0
2017-04-04T03:21:22.422Z,0
2017-04-04T03:22:03.520Z,0
2017-04-04T03:24:46.497Z,0
2017-04-04T03:25:31.347Z,0
2017-04-04T03:26:19.127Z,0
2017-04-04T03:27:01.700Z,0
2017-04-04T03:27:42.670Z,0
2017-04-04T03:49:41.923Z,0
2017-04-04T03:52:54.203Z,0
2017-04-04T03:58:01.812Z,0
2017-04-04T04:02:50.378Z,0
2017-04-04T04:05:41.644Z,0
2017-04-04T04:07:01.136Z,0
2017-04-04T04:08:38.456Z,0
2017-04-04T04:13:04.365Z,0
2017-04-04T09:38:34.773Z,1680
2017-04-04T09:39:15.387Z,1690
2017-04-04T09:39:56.028Z,1665
2017-04-04T09:40:36.592Z,1685
2017-04-04T09:41:17.173Z,1750
2017-04-04T09:41:57.744Z,1810
2017-04-04T09:42:38.291Z,1740
2017-04-04T09:43:18.893Z,1670
2017-04-04T09:43:59.531Z,1640
2017-04-04T09:44:40.163Z,1705
2017-04-04T09:45:20.796Z,1725
2017-04-04T09:46:01.434Z,1730
2017-04-04T09:46:42.006Z,1785
2017-04-04T09:47:22.738Z,1785
2017-04-04T09:48:03.332Z,1790
2017-04-04T09:48:43.951Z,1805
2017-04-04T09:49:24.569Z,1715
2017-04-04T09:50:05.139Z,1730
2017-04-04T09:50:45.873Z,1735
2017-04-04T09:51:26.698Z,1770
2017-04-04T09:52:07.303Z,1765
2017-04-04T09:54:40.497Z,1760
2017-04-04T09:55:20.947Z,1705
2017-04-04T09:57:59.025Z,1770
2017-04-04T09:58:39.513Z,1725
2017-04-04T09:59:19.991Z,1730
2017-04-04T10:00:00.484Z,1685
2017-04-04T10:02:28.495Z,1740
2017-04-04T10:03:08.991Z,1750
2017-04-04T10:03:49.545Z,1760
2017-04-04T10:04:30.017Z,1650
2017-04-04T10:06:42.805Z,815
2017-04-04T10:07:23.281Z,795
2017-04-04T10:08:03.783Z,805
2017-04-04T10:08:44.292Z,820
2017-04-04T10:09:24.844Z,815
2017-04-04T10:10:05.334Z,800
2017-04-04T10:10:45.787Z,795
2017-04-04T10:11:26.356Z,790
2017-04-04T10:12:06.853Z,795
2017-04-04T10:12:47.328Z,785
2017-04-04T10:13:27.813Z,775
2017-04-04T10:15:56.615Z,760
2017-04-04T10:16:37.238Z,705
2017-04-04T10:17:17.649Z,670
2017-04-04T10:17:58.890Z,645
2017-04-04T10:18:39.397Z,675
2017-04-04T10:19:19.978Z,780
2017-04-04T10:20:00.429Z,805
2017-04-04T10:20:40.933Z,770
2017-04-04T10:21:21.400Z,765
2017-04-04T10:22:01.868Z,730
2017-04-04T10:22:42.345Z,710
2017-04-04T10:25:16.173Z,715
2017-04-04T10:25:56.701Z,1015
2017-04-04T10:26:37.192Z,1395
2017-04-04T10:27:17.705Z,1840
2017-04-04T10:27:58.230Z,1800
2017-04-04T10:28:38.688Z,1840
2017-04-04T10:29:19.182Z,1805
2017-04-04T10:29:59.723Z,1920
2017-04-04T10:32:27.720Z,1905
2017-04-04T10:33:08.300Z,1575
2017-04-04T10:33:48.778Z,820
2017-04-04T10:34:29.332Z,825
2017-04-04T10:35:09.872Z,1465
2017-04-04T10:37:47.991Z,730
2017-04-04T10:38:28.529Z,650
2017-04-04T10:39:09.012Z,685
2017-04-04T10:39:49.567Z,1620
2017-04-04T10:40:30.052Z,855
2017-04-04T10:41:12.626Z,825
2017-04-04T10:43:46.051Z,600
2017-04-04T10:44:26.428Z,660
2017-04-04T10:45:06.929Z,655
2017-04-04T10:45:47.417Z,660
2017-04-04T10:46:27.874Z,735
2017-04-04T10:47:08.373Z,1780
2017-04-04T10:47:48.840Z,2120
2017-04-04T10:48:29.451Z,2275
2017-04-04T10:49:09.899Z,2095
2017-04-04T10:49:50.392Z,2135
2017-04-04T10:50:31.042Z,2100
2017-04-04T10:51:11.474Z,1865
2017-04-04T10:51:51.987Z,1130
2017-04-04T10:52:32.552Z,1290
2017-04-04T10:53:13.011Z,980
2017-04-04T10:55:25.849Z,630
2017-04-04T10:56:06.399Z,580
2017-04-04T10:56:46.945Z,615
2017-04-04T10:57:27.424Z,865
2017-04-04T10:58:07.937Z,960
2017-04-04T10:58:48.456Z,1490
2017-04-04T10:59:29.020Z,870
2017-04-04T11:00:09.553Z,2270
2017-04-04T11:00:50.132Z,1165
2017-04-04T11:03:28.378Z,2235
2017-04-04T11:04:08.854Z,2295
2017-04-04T11:06:46.971Z,2245
2017-04-04T11:07:27.474Z,1110
2017-04-04T11:08:07.998Z,525
2017-04-04T11:08:48.524Z,470
2017-04-04T11:13:25.054Z,480
2017-04-04T11:14:05.600Z,535
2017-04-04T11:14:46.179Z,470
2017-04-04T11:15:26.679Z,515
2017-04-04T11:16:07.245Z,995
2017-04-04T11:16:48.510Z,760
2017-04-04T11:17:28.996Z,515
2017-04-04T11:18:09.570Z,555
2017-04-04T11:18:50.103Z,585
2017-04-04T11:19:30.639Z,705
2017-04-04T11:20:11.170Z,1100
2017-04-04T11:20:51.770Z,2390
2017-04-04T11:21:32.389Z,2880
2017-04-04T11:22:13.035Z,2750
2017-04-04T11:22:53.871Z,2510
2017-04-04T11:23:34.508Z,2670
2017-04-04T11:24:15.024Z,2610
2017-04-04T11:24:55.611Z,2515
2017-04-04T11:25:36.227Z,2460
2017-04-04T11:26:16.825Z,695
2017-04-04T11:26:57.349Z,550
2017-04-04T11:27:37.914Z,495
2017-04-04T11:28:18.499Z,440
2017-04-04T11:28:59.021Z,400
2017-04-04T11:29:39.497Z,375
2017-04-04T11:30:20.132Z,345
2017-04-04T11:31:00.695Z,345
2017-04-04T11:31:41.242Z,335
2017-04-04T11:34:14.516Z,340
2017-04-04T11:34:55.172Z,340
2017-04-04T11:35:35.757Z,335
2017-04-04T11:36:16.397Z,305
2017-04-04T11:36:57.032Z,290
2017-04-04T11:37:37.650Z,275
2017-04-04T11:38:18.305Z,265
2017-04-04T11:38:58.878Z,265
2017-04-04T11:39:39.477Z,280
2017-04-04T11:40:20.059Z,310
2017-04-04T11:41:00.691Z,355
2017-04-04T11:41:41.883Z,855
2017-04-04T11:42:22.517Z,865
2017-04-04T11:43:03.692Z,580
2017-04-04T11:43:44.285Z,770
2017-04-04T11:44:24.896Z,940
2017-04-04T11:45:05.447Z,970
2017-04-04T11:45:46.103Z,975
2017-04-04T11:46:26.730Z,960
2017-04-04T11:47:07.375Z,945
2017-04-04T11:47:47.973Z,900
2017-04-04T11:48:28.549Z,670
2017-04-04T11:49:09.179Z,710
2017-04-04T11:49:49.818Z,600
2017-04-04T11:50:30.510Z,540
2017-04-04T11:51:11.290Z,485
2017-04-04T11:51:51.942Z,415
2017-04-04T11:52:32.623Z,405
2017-04-04T11:53:13.210Z,445
2017-04-04T11:53:53.821Z,505
2017-04-04T11:54:34.412Z,515
2017-04-04T11:55:15.061Z,555
2017-04-04T11:55:55.819Z,460
2017-04-04T11:56:36.505Z,445
2017-04-04T11:57:17.176Z,565
2017-04-04T11:57:57.792Z,490
2017-04-04T11:58:38.452Z,690
2017-04-04T11:59:19.166Z,795
2017-04-04T12:00:00.608Z,705
2017-04-04T12:00:41.294Z,735
2017-04-04T12:01:21.913Z,775
2017-04-04T12:02:02.582Z,620
2017-04-04T12:02:43.140Z,770
2017-04-04T12:03:23.855Z,760
2017-04-04T12:04:04.493Z,760
2017-04-04T12:04:45.164Z,750
2017-04-04T12:05:25.838Z,760
2017-04-04T12:06:06.524Z,765
2017-04-04T12:06:47.234Z,775
2017-04-04T12:07:27.850Z,795
2017-04-04T12:08:08.503Z,815
2017-04-04T12:08:49.141Z,875
2017-04-04T12:09:29.814Z,1350
2017-04-04T12:10:11.354Z,2275
2017-04-04T12:10:52.010Z,2830
2017-04-04T12:11:32.688Z,2855
2017-04-04T12:12:13.348Z,2875
2017-04-04T12:12:54.571Z,2935
2017-04-04T12:13:35.169Z,2950
2017-04-04T12:14:15.734Z,2865
2017-04-04T12:14:56.236Z,2960
2017-04-04T12:15:36.761Z,2900
2017-04-04T12:16:17.248Z,2715
2017-04-04T12:16:57.743Z,985
2017-04-04T12:17:38.203Z,725
2017-04-04T12:18:18.718Z,2700
2017-04-04T12:18:59.231Z,2720
2017-04-04T12:19:39.715Z,1025
2017-04-04T12:20:20.273Z,2895
2017-04-04T12:22:33.031Z,2545
2017-04-04T12:23:13.530Z,1750
2017-04-04T12:23:54.048Z,625
2017-04-04T12:24:34.534Z,2600
2017-04-04T12:25:15.029Z,1615
2017-04-04T12:25:55.532Z,765
2017-04-04T12:26:36.009Z,2275
2017-04-04T12:27:16.539Z,2685
2017-04-04T12:27:56.986Z,2715
2017-04-04T12:28:37.484Z,2705
2017-04-04T12:29:17.919Z,1545
2017-04-04T12:29:58.452Z,960
2017-04-04T12:30:38.884Z,1540
2017-04-04T12:33:06.915Z,605
2017-04-04T12:33:47.384Z,1880
2017-04-04T12:34:27.893Z,2325
2017-04-04T12:35:08.393Z,2560
2017-04-04T12:35:48.891Z,1730
2017-04-04T12:38:27.335Z,2615
2017-04-04T12:39:07.863Z,2685
2017-04-04T12:39:48.325Z,2705
2017-04-04T12:40:28.745Z,2790
2017-04-04T12:41:09.253Z,2805
2017-04-04T12:43:27.255Z,2900
2017-04-04T12:44:07.655Z,2980
2017-04-04T12:44:48.226Z,3015
2017-04-04T12:45:29.692Z,2935
2017-04-04T12:46:10.283Z,2945
2017-04-04T12:46:50.872Z,2990
2017-04-04T12:49:03.640Z,3030
2017-04-04T12:49:44.098Z,2995
2017-04-04T12:50:24.573Z,2915
2017-04-04T12:51:05.086Z,2905
2017-04-04T12:51:45.616Z,2905
2017-04-04T12:52:26.091Z,2905
2017-04-04T12:53:06.573Z,2875
2017-04-04T12:53:47.020Z,2885
2017-04-04T12:54:27.464Z,2785
2017-04-04T12:55:07.959Z,2725
2017-04-04T12:55:48.461Z,2690
2017-04-04T12:56:28.969Z,2680
2017-04-04T12:57:09.459Z,2670
2017-04-04T12:57:49.979Z,2655
2017-04-04T12:58:30.512Z,2660
2017-04-04T12:59:10.995Z,2740
2017-04-04T13:01:23.766Z,2565
2017-04-04T13:02:04.231Z,2720
2017-04-04T13:02:44.725Z,2755
2017-04-04T13:03:25.203Z,2815
2017-04-04T13:04:05.673Z,2725
2017-04-04T13:04:46.123Z,2770
2017-04-04T13:06:58.898Z,2785
2017-04-04T13:07:39.467Z,2720
2017-04-04T13:08:20.040Z,2660
2017-04-04T13:09:00.573Z,2570
2017-04-04T13:09:41.085Z,2525
2017-04-04T13:10:21.633Z,2555
2017-04-04T13:11:02.076Z,2565
2017-04-04T13:11:42.542Z,2590
2017-04-04T13:12:22.998Z,2560
2017-04-04T13:14:35.857Z,2675
2017-04-04T13:15:16.545Z,2710
2017-04-04T13:15:57.064Z,2735
2017-04-04T13:16:37.648Z,2715
2017-04-04T13:17:18.095Z,2645
2017-04-04T13:17:58.604Z,2660
2017-04-04T13:18:39.051Z,2655
2017-04-04T13:21:12.159Z,2690
2017-04-04T13:21:52.757Z,2695
2017-04-04T13:22:33.324Z,2655
2017-04-04T13:23:13.842Z,2590
2017-04-04T13:23:54.348Z,2585
2017-04-04T13:24:34.894Z,2630
2017-04-04T13:25:15.290Z,2665
2017-04-04T13:25:55.768Z,2675
2017-04-04T13:26:36.261Z,2665
2017-04-04T13:27:16.747Z,2635
2017-04-04T13:27:57.224Z,2490
2017-04-04T13:28:37.717Z,2385
2017-04-04T13:29:18.133Z,2330
2017-04-04T13:31:56.253Z,2220
2017-04-04T13:32:36.784Z,2430
2017-04-04T13:33:17.367Z,2435
2017-04-04T13:33:57.836Z,2445
2017-04-04T13:34:38.322Z,2475
2017-04-04T13:35:18.777Z,2535
2017-04-04T13:35:59.276Z,2565
2017-04-04T13:36:39.854Z,2500
2017-04-04T13:37:20.357Z,1345
2017-04-04T13:38:00.863Z,2285
2017-04-04T13:38:41.353Z,2350
2017-04-04T13:39:21.888Z,2360
2017-04-04T13:40:02.415Z,2310
2017-04-04T13:40:42.847Z,2425
2017-04-04T13:41:23.444Z,2395
2017-04-04T13:42:03.931Z,2380
2017-04-04T13:42:44.430Z,2315
2017-04-04T13:43:24.878Z,2320
2017-04-04T13:44:05.343Z,2220
2017-04-04T13:46:38.513Z,2310
2017-04-04T13:47:18.915Z,2345
2017-04-04T13:47:59.483Z,2225
2017-04-04T13:48:40.032Z,2150
2017-04-04T13:49:20.529Z,2045
2017-04-04T13:50:01.029Z,2035
2017-04-04T13:50:41.608Z,2115
2017-04-04T13:51:22.045Z,2200
2017-04-04T13:52:02.551Z,2245
2017-04-04T13:52:43.048Z,435
2017-04-04T13:53:23.587Z,355
2017-04-04T13:54:04.061Z,375
2017-04-04T13:54:44.573Z,380
2017-04-04T13:55:25.015Z,800
2017-04-04T13:56:05.458Z,2085
2017-04-04T13:56:45.928Z,2135
2017-04-04T13:58:58.723Z,2255
2017-04-04T13:59:39.198Z,2250
2017-04-04T14:00:20.370Z,2235
2017-04-04T14:01:00.937Z,2210
2017-04-04T14:01:41.615Z,2165
2017-04-04T14:02:22.204Z,2220
2017-04-04T14:03:02.914Z,2220
2017-04-04T14:03:43.468Z,2265
2017-04-04T14:04:24.085Z,2255
2017-04-04T14:05:04.663Z,2285
2017-04-04T14:05:45.169Z,2255
2017-04-04T14:06:25.677Z,2260
2017-04-04T14:07:06.241Z,2160
2017-04-04T14:07:46.857Z,1940
2017-04-04T14:08:27.256Z,2145
2017-04-04T14:09:07.764Z,2230
2017-04-04T14:09:48.281Z,2290
2017-04-04T14:12:26.848Z,2400
2017-04-04T14:13:07.312Z,2545
2017-04-04T14:13:47.784Z,2480
2017-04-04T14:16:15.803Z,2485
2017-04-04T14:16:56.257Z,2535
2017-04-04T14:17:36.717Z,3105
2017-04-04T14:18:17.250Z,3580
2017-04-04T14:18:57.789Z,3165
2017-04-04T14:19:38.220Z,2305
2017-04-04T14:20:18.763Z,1380
2017-04-04T14:20:59.337Z,1095
2017-04-04T14:21:39.864Z,975
2017-04-04T14:22:20.341Z,910
2017-04-04T14:23:00.795Z,880
2017-04-04T14:25:13.681Z,865
2017-04-04T14:25:54.185Z,875
2017-04-04T14:26:34.740Z,865
2017-04-04T14:27:15.289Z,875
2017-04-04T14:27:55.790Z,875
2017-04-04T14:28:36.247Z,895
2017-04-04T14:31:04.278Z,870
2017-04-04T14:31:44.720Z,880
2017-04-04T14:32:25.199Z,890
2017-04-04T14:33:05.645Z,890
2017-04-04T14:33:46.269Z,900
2017-04-04T14:34:26.746Z,900
2017-04-04T14:37:05.077Z,965
2017-04-04T14:37:45.562Z,975
2017-04-04T14:38:26.137Z,985
2017-04-04T14:39:06.624Z,995
2017-04-04T14:39:47.179Z,1010
2017-04-04T14:40:27.635Z,1035
2017-04-04T14:41:08.061Z,1020
2017-04-04T14:43:36.047Z,1145
2017-04-04T14:44:16.555Z,1160
2017-04-04T14:44:57.055Z,1190
2017-04-04T14:45:37.548Z,1205
2017-04-04T14:46:17.978Z,1245
2017-04-04T14:46:58.442Z,1190
2017-04-04T14:47:38.954Z,1255
2017-04-04T14:48:19.411Z,1270
2017-04-04T14:50:52.627Z,1335
2017-04-04T14:51:33.128Z,1305
2017-04-04T14:52:13.601Z,1305
2017-04-04T14:52:54.075Z,1265
2017-04-04T14:53:34.536Z,1205
2017-04-04T14:54:14.982Z,985
2017-04-04T14:54:55.493Z,1180
2017-04-04T14:55:35.947Z,1165
2017-04-04T14:56:16.490Z,1120
2017-04-04T14:56:56.972Z,1070
2017-04-04T14:57:37.472Z,295
2017-04-04T14:58:17.939Z,1060
2017-04-04T14:58:58.395Z,1015
2017-04-04T14:59:38.915Z,975
2017-04-04T15:01:56.785Z,880
2017-04-04T15:02:37.364Z,855
2017-04-04T15:03:17.853Z,830
2017-04-04T15:03:58.332Z,810
2017-04-04T15:04:38.819Z,795
2017-04-04T15:05:19.307Z,780
2017-04-04T15:05:59.797Z,765
2017-04-04T15:06:40.262Z,730
2017-04-04T15:07:20.748Z,725
2017-04-04T15:08:01.228Z,725
2017-04-04T15:08:41.678Z,720
2017-04-04T15:09:22.148Z,705
2017-04-04T15:10:02.623Z,695
2017-04-04T15:10:43.196Z,695
2017-04-04T15:13:01.010Z,685
2017-04-04T15:13:41.463Z,675
2017-04-04T15:14:21.961Z,670
2017-04-04T15:17:00.113Z,635
2017-04-04T15:17:40.630Z,620
2017-04-04T15:18:21.155Z,600
2017-04-04T15:19:01.623Z,595
2017-04-04T15:19:42.113Z,595
2017-04-04T15:20:22.572Z,595
2017-04-04T15:21:03.054Z,580
2017-04-04T15:21:43.551Z,565
2017-04-04T15:22:24.023Z,555
2017-04-04T15:23:04.487Z,545
2017-04-04T15:23:44.979Z,540
2017-04-04T15:24:25.465Z,525
2017-04-04T15:25:05.942Z,515
2017-04-04T15:25:46.425Z,500
2017-04-04T15:26:26.921Z,495
2017-04-04T15:27:07.419Z,490
2017-04-04T15:27:47.901Z,475
2017-04-04T15:28:28.351Z,470
2017-04-04T15:30:46.235Z,450
2017-04-04T15:31:26.767Z,445
2017-04-04T15:32:07.297Z,435
2017-04-04T15:32:47.731Z,430
2017-04-04T15:33:28.232Z,425
2017-04-04T15:34:08.748Z,420
2017-04-04T15:34:49.222Z,420
2017-04-04T15:37:07.079Z,410
2017-04-04T15:37:47.518Z,400
2017-04-04T15:38:27.991Z,395
2017-04-04T15:39:08.419Z,390
2017-04-04T15:39:48.869Z,385
2017-04-04T15:40:29.363Z,375
2017-04-04T15:41:09.791Z,375
2017-04-04T15:41:50.241Z,360
2017-04-04T15:44:23.280Z,340
2017-04-04T15:45:03.771Z,330
2017-04-04T15:45:44.259Z,325
2017-04-04T15:46:24.734Z,320
2017-04-04T15:47:05.220Z,315
2017-04-04T15:47:45.677Z,310
2017-04-04T15:48:26.129Z,300
2017-04-04T15:49:06.612Z,295
2017-04-04T15:49:47.083Z,290
2017-04-04T15:50:27.564Z,290
2017-04-04T15:51:08.001Z,285
2017-04-04T15:51:49.316Z,280
2017-04-04T15:52:29.793Z,275
2017-04-04T15:53:10.289Z,270
2017-04-04T15:56:18.772Z,255
2017-04-04T15:56:59.236Z,250
2017-04-04T15:57:39.737Z,245
2017-04-04T15:58:20.241Z,240
2017-04-04T15:59:00.706Z,240
2017-04-04T15:59:41.140Z,240
2017-04-04T16:00:21.614Z,235
2017-04-04T16:01:02.097Z,235
2017-04-04T16:01:42.581Z,235
2017-04-04T16:02:23.019Z,230
2017-04-04T16:03:03.481Z,225
2017-04-04T16:05:16.240Z,215
2017-04-04T16:05:56.697Z,210
2017-04-04T16:06:37.171Z,210
2017-04-04T16:07:17.596Z,205
2017-04-04T16:09:35.426Z,200
2017-04-04T16:11:48.215Z,195
2017-04-04T16:12:28.697Z,185
2017-04-04T16:13:09.295Z,175
2017-04-04T16:13:50.348Z,160
2017-04-04T16:16:03.104Z,150
2017-04-04T16:16:43.605Z,150
2017-04-04T16:17:24.096Z,150
2017-04-04T16:18:04.573Z,150
2017-04-04T16:18:45.058Z,150
2017-04-04T16:19:25.611Z,145
2017-04-04T16:20:06.181Z,145
2017-04-04T16:20:46.682Z,145
2017-04-04T16:21:27.198Z,145
2017-04-04T16:22:07.699Z,140
2017-04-04T16:22:48.162Z,140
2017-04-04T16:23:29.621Z,140
2017-04-04T16:24:10.123Z,140
2017-04-04T16:26:27.952Z,135
2017-04-04T16:27:08.443Z,135
2017-04-04T16:27:48.902Z,135
2017-04-04T16:28:29.389Z,135
2017-04-04T16:29:09.868Z,135
2017-04-04T16:29:50.368Z,130
2017-04-04T16:30:30.853Z,130
2017-04-04T16:31:11.361Z,130
2017-04-04T16:33:44.507Z,125
2017-04-04T16:34:25.010Z,125
2017-04-04T16:35:05.504Z,125
2017-04-04T16:35:46.012Z,120
2017-04-04T16:36:26.519Z,120
2017-04-04T16:37:07.006Z,120
2017-04-04T16:37:47.505Z,120
2017-04-04T16:38:28.051Z,115
2017-04-04T16:39:08.526Z,115
2017-04-04T16:39:48.976Z,115
2017-04-04T16:40:29.430Z,115
2017-04-04T16:41:09.930Z,110
2017-04-04T16:41:50.421Z,110
2017-04-04T16:42:30.907Z,110
2017-04-04T16:43:11.343Z,110
2017-04-04T16:43:51.815Z,110
2017-04-04T16:44:32.291Z,105
2017-04-04T16:45:12.748Z,105
2017-04-04T16:45:53.208Z,105
2017-04-04T16:46:33.682Z,105
2017-04-04T16:47:14.121Z,105
2017-04-04T16:47:54.579Z,100
2017-04-04T16:50:32.661Z,100
2017-04-04T16:51:13.170Z,95
2017-04-04T16:51:53.622Z,95
2017-04-04T16:52:34.061Z,95
2017-04-04T16:53:14.551Z,95
2017-04-04T16:53:55.001Z,95
2017-04-04T16:54:35.496Z,95
2017-04-04T16:55:15.964Z,90
2017-04-04T16:55:56.386Z,90
2017-04-04T16:56:36.837Z,90
2017-04-04T16:57:17.263Z,90
2017-04-04T16:57:57.707Z,90
2017-04-04T16:58:38.155Z,85
2017-04-04T16:59:26.980Z,85
2017-04-04T17:01:58.690Z,80
2017-04-04T17:12:01.538Z,65
2017-04-04T17:12:42.036Z,65
2017-04-04T17:13:22.520Z,65
2017-04-04T17:14:02.960Z,65
2017-04-04T17:14:43.488Z,60
2017-04-04T17:15:23.946Z,60
2017-04-04T17:16:04.403Z,60
2017-04-04T17:16:44.811Z,60
2017-04-04T17:17:25.273Z,55
2017-04-04T17:18:05.778Z,55
2017-04-04T17:18:46.285Z,55
2017-04-04T17:19:26.783Z,55
2017-04-04T17:20:07.342Z,55
2017-04-04T17:20:47.807Z,50
2017-04-04T17:23:25.892Z,50
2017-04-04T17:24:06.380Z,50
2017-04-04T17:24:46.835Z,45
2017-04-04T17:25:27.323Z,45
2017-04-04T17:26:07.776Z,45
2017-04-04T17:26:48.261Z,45
2017-04-04T17:27:28.717Z,45
2017-04-04T17:28:09.192Z,40
2017-04-04T17:28:49.701Z,40
2017-04-04T17:29:30.131Z,40
2017-04-04T17:30:10.574Z,40
2017-04-04T17:30:51.007Z,40
2017-04-04T17:31:31.500Z,40
2017-04-04T17:32:11.945Z,35
2017-04-04T17:32:52.412Z,35
2017-04-04T17:33:32.870Z,35
2017-04-04T17:34:13.347Z,35
2017-04-04T17:34:53.781Z,35
2017-04-04T17:35:34.245Z,30
2017-04-04T17:36:14.713Z,30
2017-04-04T17:36:55.129Z,30
2017-04-04T17:37:35.572Z,30
2017-04-04T17:38:16.041Z,30
2017-04-04T17:38:56.514Z,30
2017-04-04T17:39:36.940Z,25
2017-04-04T17:40:17.355Z,25
2017-04-04T17:40:57.809Z,25
2017-04-04T17:41:38.247Z,25
2017-04-04T17:42:19.352Z,25
2017-04-04T17:42:59.840Z,25
2017-04-04T17:43:40.264Z,25
2017-04-04T17:44:20.730Z,20
2017-04-04T17:45:01.261Z,20
2017-04-04T17:45:41.702Z,20
2017-04-04T17:48:09.638Z,20
2017-04-04T17:48:50.137Z,20
2017-04-04T17:49:30.602Z,20
2017-04-04T17:50:11.063Z,15
2017-04-04T17:50:51.534Z,15
2017-04-04T17:51:32.926Z,15
2017-04-04T17:52:13.364Z,15
2017-04-04T17:52:53.789Z,15
2017-04-04T17:53:34.233Z,15
2017-04-04T17:54:14.839Z,15
2017-04-04T17:54:55.301Z,15
2017-04-04T17:55:35.765Z,10
2017-04-04T17:56:16.205Z,10
2017-04-04T17:56:56.664Z,10
2017-04-04T17:57:37.134Z,10
2017-04-04T17:58:17.560Z,10
2017-04-04T17:58:57.990Z,10
2017-04-04T17:59:38.460Z,10
2017-04-04T18:00:18.912Z,10
2017-04-04T18:02:31.648Z,5
2017-04-04T18:03:12.111Z,5
2017-04-04T18:03:52.682Z,5
2017-04-04T18:04:33.178Z,5
2017-04-04T18:05:13.607Z,5
2017-04-04T18:05:54.060Z,5
2017-04-04T18:06:34.549Z,5
2017-04-04T18:07:15.005Z,5
2017-04-04T18:07:55.456Z,0
2017-04-04T18:08:35.898Z,0
2017-04-04T18:09:16.350Z,0
2017-04-04T18:09:56.826Z,0
2017-04-04T18:10:37.250Z,0
2017-04-04T18:11:17.689Z,0
2017-04-04T18:11:58.133Z,0
2017-04-04T18:12:38.576Z,0
2017-04-04T18:15:16.697Z,0
2017-04-04T18:15:57.174Z,0
2017-04-04T18:16:37.645Z,0
2017-04-04T18:17:18.133Z,0
2017-04-04T18:17:58.628Z,0
2017-04-04T18:18:39.143Z,0
2017-04-04T18:19:19.630Z,0
2017-04-04T18:20:00.123Z,0
2017-04-04T18:20:40.599Z,0
2017-04-04T18:21:21.152Z,0
2017-04-04T18:22:01.648Z,0
2017-04-04T18:22:42.130Z,0
2017-04-04T18:23:22.595Z,0
2017-04-04T18:24:03.038Z,0
2017-04-04T18:24:43.493Z,0
2017-04-04T18:25:23.970Z,0
2017-04-04T18:26:04.522Z,0
2017-04-04T18:26:44.985Z,0
2017-04-04T18:27:25.541Z,0
2017-04-04T18:28:06.014Z,0
2017-04-04T18:28:46.490Z,0
2017-04-04T18:29:26.967Z,0
2017-04-04T18:30:07.411Z,0
2017-04-04T18:30:47.893Z,0
2017-04-04T18:33:26.061Z,0
2017-04-04T18:34:06.518Z,0
2017-04-04T18:34:46.972Z,0
2017-04-04T18:35:27.481Z,0
2017-04-04T18:36:07.960Z,0
2017-04-04T18:36:48.438Z,0
2017-04-04T18:37:28.980Z,0
2017-04-04T18:38:09.449Z,0
2017-04-04T18:38:49.907Z,0
2017-04-04T18:39:30.446Z,0
2017-04-04T18:42:08.566Z,0
2017-04-04T18:42:49.057Z,0
2017-04-04T18:43:29.705Z,0
2017-04-04T18:44:10.188Z,0
2017-04-04T18:44:50.730Z,0
2017-04-04T18:45:31.147Z,0
2017-04-04T18:46:11.603Z,0
2017-04-04T18:46:52.079Z,0
2017-04-04T18:47:32.570Z,0
2017-04-04T18:48:13.061Z,0
2017-04-04T18:48:53.511Z,0
2017-04-04T18:49:33.986Z,0
2017-04-04T18:52:01.939Z,0
2017-04-04T18:52:42.403Z,0
2017-04-04T18:53:22.863Z,0
2017-04-04T18:54:03.304Z,0
2017-04-04T18:56:16.122Z,0
2017-04-04T18:56:56.653Z,0
2017-04-04T18:57:37.157Z,0
2017-04-04T18:58:17.678Z,0
2017-04-04T18:58:58.175Z,0
2017-04-04T18:59:38.645Z,0
2017-04-04T19:00:19.105Z,0
2017-04-04T19:00:59.561Z,0
2017-04-04T19:01:40.039Z,0
2017-04-04T19:02:20.508Z,0
2017-04-04T19:03:01.008Z,0
2017-04-04T19:03:41.467Z,0
2017-04-04T19:04:21.976Z,0
2017-04-04T19:06:39.934Z,0
2017-04-04T19:07:20.375Z,0
2017-04-04T19:08:00.857Z,0
2017-04-04T19:08:41.313Z,0
2017-04-04T19:09:21.868Z,0
2017-04-04T19:10:02.369Z,0
2017-04-04T19:10:42.885Z,0
2017-04-04T19:11:23.374Z,0
2017-04-04T19:12:03.862Z,0
2017-04-04T19:12:44.306Z,0
2017-04-04T19:15:02.099Z,0
2017-04-04T19:15:42.558Z,0
2017-04-04T19:16:23.035Z,0
2017-04-04T19:17:03.452Z,0
2017-04-04T19:17:43.890Z,0
2017-04-04T19:18:24.356Z,0
2017-04-04T19:19:04.811Z,0
2017-04-04T19:21:32.833Z,0
2017-04-04T19:22:13.286Z,0
2017-04-04T19:22:53.762Z,0
2017-04-04T19:23:34.260Z,0
2017-04-04T19:24:14.751Z,0
2017-04-04T19:24:55.235Z,0
2017-04-04T19:25:35.732Z,0
2017-04-04T19:26:16.178Z,0
2017-04-04T19:26:56.651Z,0
2017-04-04T19:27:37.112Z,0
2017-04-04T19:28:17.595Z,0
2017-04-04T19:28:58.031Z,0
2017-04-04T19:29:38.489Z,0
2017-04-04T19:30:18.948Z,0
2017-04-04T19:30:59.367Z,0
2017-04-04T19:31:39.851Z,0
2017-04-04T19:33:57.689Z,0
2017-04-04T19:34:38.168Z,0
2017-04-04T19:35:18.586Z,0
2017-04-04T19:37:31.296Z,0
2017-04-04T19:38:11.785Z,0
2017-04-04T19:40:39.712Z,0
2017-04-04T19:41:20.142Z,0
2017-04-04T19:42:00.576Z,0
2017-04-04T19:42:41.002Z,0
2017-04-04T19:43:21.434Z,0
2017-04-04T19:44:01.898Z,0
2017-04-04T19:44:42.325Z,0
2017-04-04T19:47:20.447Z,0
2017-04-04T19:48:00.926Z,0
2017-04-04T19:48:41.399Z,0
2017-04-04T19:49:21.878Z,0
2017-04-04T19:51:54.898Z,0
2017-04-04T19:52:35.354Z,0
2017-04-04T19:53:15.865Z,0
2017-04-04T19:53:56.311Z,0
2017-04-04T19:54:36.760Z,0
2017-04-04T19:55:17.227Z,0
2017-04-04T19:57:50.264Z,0
2017-04-04T19:58:30.709Z,0
2017-04-04T19:59:11.167Z,0
2017-04-04T19:59:51.569Z,0
2017-04-04T20:00:32.022Z,0
2017-04-04T20:01:12.485Z,0
2017-04-04T20:01:52.946Z,0
2017-04-04T20:02:33.416Z,0
2017-04-04T20:03:13.870Z,0
2017-04-04T20:05:46.918Z,0
2017-04-04T20:06:27.395Z,0
2017-04-04T20:07:07.860Z,0
2017-04-04T20:07:48.352Z,0
2017-04-04T20:08:28.841Z,0
2017-04-04T20:09:09.328Z,0
2017-04-04T20:09:49.786Z,0
2017-04-04T20:10:30.225Z,0
2017-04-04T20:11:10.687Z,0
2017-04-04T20:11:51.175Z,0
2017-04-04T20:12:31.573Z,0
2017-04-04T20:13:12.024Z,0
2017-04-04T20:13:52.483Z,0
2017-04-04T20:14:32.946Z,0
2017-04-04T20:15:13.404Z,0
2017-04-04T20:15:53.873Z,0
2017-04-04T20:16:34.343Z,0
2017-04-04T20:17:14.773Z,0
2017-04-04T20:17:55.221Z,0
2017-04-04T20:22:00.496Z,0
2017-04-04T20:22:40.952Z,0
2017-04-04T20:23:21.399Z,0
2017-04-04T20:24:01.870Z,0
2017-04-04T20:24:42.286Z,0
2017-04-04T20:25:22.746Z,0
2017-04-04T20:26:03.170Z,0
2017-04-04T20:26:43.651Z,0